TAP43M LPPT-GVNP
Flight info
| Callsign | TAP43M |
|---|---|
| Flight time | N/A |
| Altitude | 35000 |
| Route | ULVOT DCT BEXAL DCT SAMAR DCT YUSME DCT LIMAL N873 IPERA UN873 CVS DISDA1H |
| Aircraft | A21N/M-SDE2E3FGHIRWXY/LB1 |
Departure
| Time | N/A |
|---|---|
| Airport | Lisbon Humberto Delgado Airport (LPPT) |
Arrival
| Time | 2026-04-27 16:30 |
|---|---|
| Airport | Nelson Mandela International Airport (GVNP) |
| Time | Latitude | Longitude | Altitude | Speed | Heading |
|---|---|---|---|---|---|
| 2026-04-27 15:19 | 21.83749 | -19.74926 | 36669 ft | 427 kts | 221° |
| 2026-04-27 15:19 | 21.81183 | -19.76601 | 36867 ft | 426 kts | 221° |
| 2026-04-27 15:20 | 21.78664 | -19.78247 | 37009 ft | 426 kts | 221° |
| 2026-04-27 15:20 | 21.76134 | -19.79899 | 37043 ft | 425 kts | 221° |
| 2026-04-27 15:20 | 21.71037 | -19.83227 | 37053 ft | 426 kts | 221° |
| 2026-04-27 15:21 | 21.65976 | -19.86522 | 37047 ft | 424 kts | 221° |
| 2026-04-27 15:21 | 21.60949 | -19.89796 | 37052 ft | 424 kts | 221° |
| 2026-04-27 15:22 | 21.55889 | -19.93088 | 37055 ft | 423 kts | 221° |
| 2026-04-27 15:22 | 21.50810 | -19.96389 | 37050 ft | 424 kts | 221° |
| 2026-04-27 15:23 | 21.45749 | -19.99675 | 37053 ft | 425 kts | 221° |
| 2026-04-27 15:23 | 21.40690 | -20.02959 | 37057 ft | 425 kts | 221° |
| 2026-04-27 15:24 | 21.35644 | -20.06229 | 37057 ft | 423 kts | 221° |
| 2026-04-27 15:24 | 21.30589 | -20.09501 | 37054 ft | 424 kts | 221° |
| 2026-04-27 15:25 | 21.25525 | -20.12781 | 37057 ft | 425 kts | 221° |
| 2026-04-27 15:25 | 21.20472 | -20.16050 | 37055 ft | 424 kts | 221° |
| 2026-04-27 15:26 | 21.15390 | -20.19334 | 37056 ft | 423 kts | 221° |
| 2026-04-27 15:26 | 21.10334 | -20.22599 | 37058 ft | 425 kts | 221° |
| 2026-04-27 15:27 | 21.05260 | -20.25871 | 37050 ft | 424 kts | 221° |
| 2026-04-27 15:27 | 21.00188 | -20.29141 | 37052 ft | 425 kts | 221° |
| 2026-04-27 15:28 | 20.95106 | -20.32413 | 37055 ft | 425 kts | 221° |
| 2026-04-27 15:28 | 20.90013 | -20.35692 | 37055 ft | 424 kts | 221° |
| 2026-04-27 15:29 | 20.84900 | -20.38983 | 37057 ft | 429 kts | 221° |
| 2026-04-27 15:29 | 20.79826 | -20.42247 | 37052 ft | 434 kts | 220° |
| 2026-04-27 15:30 | 20.74597 | -20.45604 | 37057 ft | 438 kts | 220° |
| 2026-04-27 15:30 | 20.69350 | -20.48969 | 37052 ft | 441 kts | 220° |
| 2026-04-27 15:31 | 20.64063 | -20.52356 | 37051 ft | 441 kts | 220° |
| 2026-04-27 15:31 | 20.58774 | -20.55741 | 37049 ft | 442 kts | 220° |
| 2026-04-27 15:32 | 20.53492 | -20.59124 | 37048 ft | 442 kts | 220° |
| 2026-04-27 15:32 | 20.48209 | -20.62502 | 37047 ft | 442 kts | 220° |
| 2026-04-27 15:33 | 20.42924 | -20.65883 | 37052 ft | 443 kts | 220° |
| 2026-04-27 15:33 | 20.37633 | -20.69261 | 37051 ft | 443 kts | 220° |
| 2026-04-27 15:34 | 20.32317 | -20.72644 | 37047 ft | 443 kts | 219° |
| 2026-04-27 15:34 | 20.26991 | -20.76027 | 37049 ft | 445 kts | 220° |
| 2026-04-27 15:35 | 20.21692 | -20.79391 | 37052 ft | 445 kts | 220° |
| 2026-04-27 15:35 | 20.16359 | -20.82777 | 37053 ft | 444 kts | 219° |
| 2026-04-27 15:36 | 20.11034 | -20.86155 | 37050 ft | 444 kts | 219° |
| 2026-04-27 15:36 | 20.05689 | -20.89541 | 37043 ft | 445 kts | 220° |
| 2026-04-27 15:37 | 20.00392 | -20.92899 | 37039 ft | 445 kts | 219° |
| 2026-04-27 15:37 | 19.95063 | -20.96271 | 37034 ft | 445 kts | 219° |
| 2026-04-27 15:38 | 19.89736 | -20.99640 | 37036 ft | 444 kts | 219° |
| 2026-04-27 15:38 | 19.84428 | -21.02993 | 37035 ft | 444 kts | 219° |
| 2026-04-27 15:39 | 19.79089 | -21.06364 | 37034 ft | 445 kts | 219° |
| 2026-04-27 15:39 | 19.73778 | -21.09715 | 37036 ft | 445 kts | 219° |
| 2026-04-27 15:40 | 19.68414 | -21.13096 | 37035 ft | 446 kts | 219° |
| 2026-04-27 15:40 | 19.63088 | -21.16453 | 37035 ft | 446 kts | 219° |
| 2026-04-27 15:41 | 19.57745 | -21.19813 | 37032 ft | 446 kts | 219° |
| 2026-04-27 15:41 | 19.52391 | -21.23180 | 37039 ft | 447 kts | 219° |
| 2026-04-27 15:42 | 19.47038 | -21.26547 | 37038 ft | 446 kts | 219° |
| 2026-04-27 15:42 | 19.41684 | -21.29907 | 37038 ft | 447 kts | 219° |
| 2026-04-27 15:43 | 19.36337 | -21.33261 | 37037 ft | 446 kts | 219° |
| 2026-04-27 15:43 | 19.30970 | -21.36625 | 37039 ft | 447 kts | 219° |
| 2026-04-27 15:44 | 19.25605 | -21.39987 | 37037 ft | 447 kts | 219° |
| 2026-04-27 15:44 | 19.20220 | -21.43358 | 37037 ft | 448 kts | 219° |
| 2026-04-27 15:45 | 19.14878 | -21.46700 | 37038 ft | 447 kts | 219° |
| 2026-04-27 15:45 | 19.09519 | -21.50050 | 37037 ft | 447 kts | 219° |
| 2026-04-27 15:46 | 19.04144 | -21.53405 | 37038 ft | 448 kts | 219° |
| 2026-04-27 15:46 | 18.98788 | -21.56749 | 37036 ft | 448 kts | 219° |
| 2026-04-27 15:47 | 18.93378 | -21.60122 | 37036 ft | 448 kts | 219° |
| 2026-04-27 15:47 | 18.88026 | -21.63458 | 37035 ft | 448 kts | 218° |
| 2026-04-27 15:48 | 18.82633 | -21.66816 | 37037 ft | 449 kts | 218° |
| 2026-04-27 15:49 | 18.74526 | -21.71859 | 37035 ft | 449 kts | 218° |
| 2026-04-27 15:49 | 18.69145 | -21.75203 | 37036 ft | 449 kts | 218° |
| 2026-04-27 15:50 | 18.63757 | -21.78548 | 37036 ft | 449 kts | 218° |
| 2026-04-27 15:50 | 18.58352 | -21.81903 | 37036 ft | 449 kts | 218° |
| 2026-04-27 15:51 | 18.52958 | -21.85248 | 37036 ft | 450 kts | 218° |
| 2026-04-27 15:51 | 18.47552 | -21.88598 | 37036 ft | 449 kts | 218° |
| 2026-04-27 15:52 | 18.42132 | -21.91953 | 37036 ft | 449 kts | 218° |
| 2026-04-27 15:52 | 18.36755 | -21.95281 | 37037 ft | 451 kts | 218° |
| 2026-04-27 15:53 | 18.31327 | -21.98638 | 37038 ft | 451 kts | 218° |
| 2026-04-27 15:53 | 18.25896 | -22.01993 | 37038 ft | 450 kts | 218° |
| 2026-04-27 15:54 | 18.20472 | -22.05342 | 37037 ft | 451 kts | 218° |
| 2026-04-27 15:54 | 18.15051 | -22.08684 | 37038 ft | 451 kts | 218° |
| 2026-04-27 15:55 | 18.09608 | -22.12040 | 37038 ft | 451 kts | 218° |
| 2026-04-27 15:55 | 18.04216 | -22.15363 | 37037 ft | 451 kts | 218° |
| 2026-04-27 15:56 | 17.98791 | -22.18702 | 37035 ft | 452 kts | 218° |
| 2026-04-27 15:56 | 17.93362 | -22.22041 | 37035 ft | 452 kts | 218° |
| 2026-04-27 15:57 | 17.87933 | -22.25379 | 37030 ft | 451 kts | 217° |
| 2026-04-27 15:57 | 17.82564 | -22.28675 | 37033 ft | 450 kts | 218° |
| 2026-04-27 15:58 | 17.77139 | -22.32006 | 37028 ft | 450 kts | 218° |
| 2026-04-27 15:58 | 17.71729 | -22.35326 | 37028 ft | 451 kts | 217° |
| 2026-04-27 15:59 | 17.66260 | -22.38678 | 37030 ft | 451 kts | 217° |
| 2026-04-27 15:59 | 17.60837 | -22.42000 | 37030 ft | 451 kts | 217° |
| 2026-04-27 16:00 | 17.55416 | -22.45319 | 37031 ft | 451 kts | 217° |
| 2026-04-27 16:00 | 17.49948 | -22.48663 | 37029 ft | 451 kts | 217° |
| 2026-04-27 16:01 | 17.44526 | -22.51977 | 37031 ft | 452 kts | 217° |
| 2026-04-27 16:01 | 17.39089 | -22.55299 | 37030 ft | 452 kts | 217° |
| 2026-04-27 16:02 | 17.33641 | -22.58623 | 37032 ft | 452 kts | 217° |
| 2026-04-27 16:02 | 17.28186 | -22.61951 | 37028 ft | 452 kts | 217° |
| 2026-04-27 16:03 | 17.22751 | -22.65264 | 37031 ft | 453 kts | 217° |
| 2026-04-27 16:03 | 17.17422 | -22.68512 | 37028 ft | 454 kts | 216° |
| 2026-04-27 16:04 | 17.11896 | -22.71876 | 37032 ft | 454 kts | 216° |
| 2026-04-27 16:04 | 17.06434 | -22.75197 | 37034 ft | 453 kts | 216° |
| 2026-04-27 16:05 | 17.00951 | -22.78530 | 37036 ft | 454 kts | 216° |
| 2026-04-27 16:05 | 16.95506 | -22.81840 | 37038 ft | 455 kts | 216° |
| 2026-04-27 16:06 | 16.90019 | -22.85172 | 37040 ft | 454 kts | 216° |
| 2026-04-27 16:06 | 16.84557 | -22.88486 | 37038 ft | 455 kts | 216° |
| 2026-04-27 16:07 | 16.78936 | -22.91676 | 37040 ft | 459 kts | 211° |
| 2026-04-27 16:07 | 16.73031 | -22.94215 | 37040 ft | 462 kts | 205° |
| 2026-04-27 16:08 | 16.66798 | -22.96068 | 37039 ft | 468 kts | 198° |
| 2026-04-27 16:08 | 16.60314 | -22.97253 | 37037 ft | 472 kts | 194° |
| 2026-04-27 16:09 | 16.53863 | -22.98277 | 36887 ft | 460 kts | 194° |
| 2026-04-27 16:09 | 16.47606 | -22.99272 | 36300 ft | 451 kts | 194° |
| 2026-04-27 16:09 | 16.44496 | -22.99770 | 36006 ft | 448 kts | 194° |
| 2026-04-27 16:10 | 16.38321 | -23.00761 | 35420 ft | 447 kts | 194° |
| 2026-04-27 16:10 | 16.32163 | -23.01749 | 34838 ft | 448 kts | 194° |
| 2026-04-27 16:11 | 16.29076 | -23.02244 | 34549 ft | 449 kts | 194° |
| 2026-04-27 16:11 | 16.22836 | -23.03244 | 33812 ft | 452 kts | 194° |
| 2026-04-27 16:12 | 16.16575 | -23.04246 | 32577 ft | 455 kts | 194° |
| 2026-04-27 16:12 | 16.13476 | -23.04743 | 31923 ft | 457 kts | 194° |
| 2026-04-27 16:12 | 16.07100 | -23.05766 | 30380 ft | 477 kts | 193° |
| 2026-04-27 16:13 | 16.03756 | -23.06306 | 29505 ft | 488 kts | 193° |
| 2026-04-27 16:13 | 15.96968 | -23.07388 | 27757 ft | 494 kts | 192° |
| 2026-04-27 16:13 | 15.93589 | -23.07925 | 26936 ft | 495 kts | 192° |
| 2026-04-27 16:14 | 15.86751 | -23.09012 | 25793 ft | 498 kts | 192° |
| 2026-04-27 16:14 | 15.79872 | -23.10105 | 24623 ft | 500 kts | 192° |
| 2026-04-27 16:15 | 15.72939 | -23.11207 | 23454 ft | 502 kts | 191° |
| 2026-04-27 16:15 | 15.66037 | -23.12305 | 22285 ft | 494 kts | 191° |
| 2026-04-27 16:16 | 15.59299 | -23.13372 | 21129 ft | 485 kts | 191° |
| 2026-04-27 16:16 | 15.52740 | -23.14825 | 19966 ft | 473 kts | 199° |
| 2026-04-27 16:17 | 15.46608 | -23.17122 | 18805 ft | 463 kts | 203° |
| 2026-04-27 16:17 | 15.40706 | -23.19488 | 17725 ft | 447 kts | 204° |
| 2026-04-27 16:18 | 15.34998 | -23.21806 | 16669 ft | 431 kts | 204° |
| 2026-04-27 16:18 | 15.29486 | -23.24048 | 15607 ft | 416 kts | 204° |
| 2026-04-27 16:19 | 15.26830 | -23.25133 | 15078 ft | 410 kts | 204° |
| 2026-04-27 16:19 | 15.24170 | -23.26223 | 14536 ft | 404 kts | 204° |
| 2026-04-27 16:20 | 15.16592 | -23.29284 | 12899 ft | 367 kts | 202° |
| 2026-04-27 16:20 | 15.14204 | -23.30179 | 12341 ft | 359 kts | 202° |
| 2026-04-27 16:20 | 15.09552 | -23.31915 | 11251 ft | 353 kts | 202° |
| 2026-04-27 16:21 | 15.07232 | -23.32782 | 10685 ft | 349 kts | 201° |
| 2026-04-27 16:21 | 15.00773 | -23.35198 | 8998 ft | 312 kts | 202° |
| 2026-04-27 16:22 | 14.98775 | -23.35945 | 8419 ft | 300 kts | 201° |
| 2026-04-27 16:22 | 14.94973 | -23.37362 | 7288 ft | 281 kts | 202° |
| 2026-04-27 16:22 | 14.93147 | -23.38040 | 6808 ft | 276 kts | 201° |
| 2026-04-27 16:23 | 14.91325 | -23.38719 | 6392 ft | 276 kts | 201° |
| 2026-04-27 16:23 | 14.87600 | -23.40119 | 5136 ft | 292 kts | 201° |
| 2026-04-27 16:23 | 14.85672 | -23.40869 | 4509 ft | 300 kts | 201° |
| 2026-04-27 16:24 | 14.83688 | -23.41655 | 3861 ft | 308 kts | 201° |
| 2026-04-27 16:24 | 14.79620 | -23.43307 | 2690 ft | 316 kts | 201° |
| 2026-04-27 16:25 | 14.75704 | -23.45015 | 2419 ft | 289 kts | 212° |
| 2026-04-27 16:25 | 14.73752 | -23.48256 | 2425 ft | 269 kts | 270° |
| 2026-04-27 16:26 | 14.74937 | -23.51730 | 2427 ft | 257 kts | 316° |
| 2026-04-27 16:26 | 14.77636 | -23.54111 | 2418 ft | 252 kts | 340° |
| 2026-04-27 16:27 | 14.81002 | -23.53974 | 2426 ft | 235 kts | 21° |
| 2026-04-27 16:27 | 14.85195 | -23.52157 | 1961 ft | 209 kts | 22° |
| 2026-04-27 16:28 | 14.87790 | -23.51089 | 1466 ft | 183 kts | 22° |
| 2026-04-27 16:28 | 14.89964 | -23.50186 | 971 ft | 152 kts | 23° |
| 2026-04-27 16:29 | 14.92589 | -23.49107 | 460 ft | 129 kts | 23° |
| 2026-04-27 16:30 | 14.94154 | -23.48455 | 310 ft | 78 kts | 22° |
| 2026-04-27 16:30 | 14.94415 | -23.48339 | 312 ft | 1 kts | 291° |
| 2026-04-27 16:31 | 14.94357 | -23.48495 | 315 ft | 6 kts | 291° |
| 2026-04-27 16:31 | 14.94420 | -23.48522 | 319 ft | 7 kts | 25° |
| 2026-04-27 16:32 | 14.94465 | -23.48538 | 321 ft | 1 kts | 294° |
| 2026-04-27 16:32 | 14.94466 | -23.48541 | 321 ft | 0 kts | 295° |
| 2026-04-27 16:33 | 14.94476 | -23.48564 | 323 ft | 0 kts | 294° |